プラハ の空港の天気 - METARとTAF

ルズィニエ国際空港(プラハ) ( LKPR / PRG ) - チェコ プラハ
飛行場実況気象(Metar)
観測時間01/22 10:37 CET (01/22 09:37 UTC)
風向・風速北北西 2m/s
視程150m
天気現象氷霧
全天を覆う雲 鉛直視程 30m
気温-9℃
湿度85%
気圧1029hPa
METARLKPR 220937Z 34003KT 0150 R24/0200N R30/0500D FZFG VV001 M09/M11 Q1029 RMK REG QNH 1023
過去の天気等 Google飛行場航空写真 Wunderground天気予報

過去48時間のMETAR

飛行場予報(TAF)
発表時間: 1/22 06:00 CET (1/22 05:00 UTC)
予報対象時間: 22日7時 CET ~ 23日13時 CET
風向・風速北 1m/s
視程200m
天気現象氷霧
全天を覆う雲 雲底高度 30m
22日9時 CET ~ 22日11時 CET に一時的に
視程400m
天気現象氷霧
全天の8割程度の雲 雲底高度 90m
22日11時 CET ~ 22日13時 CET に徐々に
風向・風速東 2m/s
視程900m
天気現象氷霧
全天の4割程度の雲 雲底高度 180m
22日13時 CET ~ 22日15時 CET に徐々に
視程5,000m
天気現象もや
なし
22日21時 CET ~ 22日23時 CET に徐々に
風向・風速不定 1m/s
23日2時 CET ~ 23日4時 CET に徐々に
視程7,000m
全天の8割程度の雲 雲底高度 610m
TAF LKPR 220500Z 2206/2312 35002KT 0200 FZFG OVC001
TEMPO 2208/2210 0400 FZFG BKN003
BECMG 2210/2212 08003KT 0900 FZFG SCT006
BECMG 2212/2214 5000 BR NSC
BECMG 2220/2222 VRB02KT
BECMG 2301/2303 7000 BKN020